الصفحة الرئيسية
METAR-TAF:

METAR-TAF

مطار :

Sandakan, ماليزيا

دائرة عرض: 05-54N, خط طول: 118-04E, ارتفاع: 12 متر

مراقبة الطقس الحالي

تاريخ ووقت الإصدار 30 دقيقة قبل الساعة 03:00UTC
ريح 5 عقدة من الشمال/الشمال الشرقي, الاتجاه يتراوح بين الشمال الغربي و الشرق
درجة الحرارة 30°درجة مئوية
الرطوبة 75%
ضغط 1009 hPa
الرؤية 10 كم أو أكثر
غيوم متفرقة على ارتفاع 1500 قدم

METAR: WBKS 270300Z 03005KT 320V080 9999 SCT015 30/25 Q1009

زمن: 11:30 (03:30 UTC)

توقعات

تاريخ ووقت الإصدار 4ساعات و 30 دقيقة قبل الساعة 23:00UTC
التوقعات صالحة من27 الساعة 00 UTC إلى 28 الساعة 00 UTC
ريح 5 عقدة من الغرب
الرؤية 10 كم أو أكثر
غيوم قليلة على ارتفاع 1500 قدم
مؤقت
من 27 الساعة 01 UTC إلى 27 الساعة 05 UTC
الرؤية: 4000 متر
غيوم قليلة على ارتفاع 900 قدم
غيوم قليلة على ارتفاع 1700 قدم, مزنة ركامية.
غيوم متفرقة على ارتفاع 3500 قدم
مطر

TAF: WBKS 262300Z 2700/2800 27005KT 9999 FEW015 TEMPO 2701/2705 4000 RA FEW009 FEW017CB SCT035

أرصاد الطقس والتوقعات من أكثر من 4000 مطار (تقارير الطقس للمطار METAR والتنبؤ بالطقس بالمطارTAF).

المحطات المتاحة هي النقط الصفراء والحمراء على الخريطة.

حرك المؤشر فوق النقطة لمعرفة اسم المحطة.

ثم انقر لمعرفة أرصاد وتوقعات الطقس.

لتغيير الخارطة: اضغط على الأزرار الخضراء مع رمز الصليب الأسود للتكبير. على الزر الأخضر مع شرطة للتصغير، أو على الأسهم الخضراء للخرائط المجاورة.


METAR-TAF: